x

West Lake Ontario - Grimsby (45139) Wave Buoy

9:00am - Thu 27th Apr 2017 All times are CDT. -5 hours from GMT.

  • Sig Wave height 0.3ft
  • Peak Period 3s
  • Wind
    4mph
  • Sea Temp 44°f
  • Air Temp 43°f
  • Sea Pressure 1004.6mb
  • West Lake Ontario - Grimsby
  • West Lake Ontario - Grimsby

More Historic Weather Station data

Upgrade to MSW Pro to gain access to the past 30 days of data for over 8000 Wavebouys and Weather Stations around the globe.

Join Pro

Comparision Forecast

View Surf forecast
   
Thu 04/27 9:00am 0.3ft 3s 4
mph
1004.6mb 44f 43f
8:00am 0.3ft 3s 4 7 mph 1004.8mb 43f 42f
7:00am 0.3ft 3s 4 7 mph 1004.7mb 43f 43f
5:00am 0.3ft 3s 2 4 mph 1004.5mb 43f 41f
4:00am 0.7ft 3s 2 4 mph 1004.5mb 43f 42f
3:00am 0.7ft 3s 2 4 mph 1004.5mb 43f 42f
2:00am 0.7ft 3s 2 4 mph 1004.6mb 43f 42f
1:00am 0.7ft 3s 2 4 mph 1004.5mb 43f 43f
12:00am 1ft 4s 2 4 mph 1005.2mb 43f 44f
Wed 04/26 11:00pm 0.7ft 4s 2
mph
1005.3mb 43f 46f
10:00pm 1ft 4s 4 7 mph 1005.8mb 43f 45f
9:00pm 1ft 4s 4
mph
1006mb 43f 45f
8:00pm 1ft 3s 9 11 mph 1006.1mb 44f 44f
7:00pm 1ft 4s 9 11 mph 1005.4mb 44f 44f
6:00pm 1ft 4s 4 9 mph 1005.1mb 45f 44f
5:00pm 1ft 4s 7
mph
1005.7mb 46f 44f
4:00pm 1ft 4s 4
mph
1005.7mb 46f 43f
3:00pm 1.3ft 4s 7
mph
1006.7mb 46f 42f
2:00pm 1.3ft 4s 4 7 mph 1006.9mb 45f 43f
1:00pm 1ft 4s 4
mph
1008mb 45f 43f
12:00pm 1.3ft 4s 4 7 mph 1008.5mb 45f 43f
11:00am 1.3ft 4s 4 7 mph 1009.3mb 44f 42f
10:00am 1.3ft 4s 4 7 mph 1009.9mb 44f 42f
9:00am 1.6ft 4s 2 4 mph 1009.8mb 44f 42f
8:00am 1.6ft 4s 4
mph
1009.8mb 43f 42f
7:00am 1.6ft 5s 4 7 mph 1009.7mb 43f 42f
6:00am 2ft 5s 4
mph
1009.3mb 42f 42f
5:00am 2ft 5s 2 4 mph 1009.1mb 42f 42f
4:00am 2.5ft 5s 4
mph
1009.4mb 43f 42f
3:00am 2.5ft 5s 7 9 mph 1009mb 43f 42f
2:00am 2.5ft 5s 2 4 mph 1009.2mb 44f 42f
1:00am 2.5ft 5s 2
mph
1009.8mb 44f 42f
12:00am 3.5ft 5s 4 7 mph 1010.1mb 43f 42f
Tue 04/25 11:00pm 3ft 6s 7
mph
1010.1mb 43f 42f
10:00pm 3.5ft 5s 7 9 mph 1010.4mb 43f 42f
9:00pm 3.5ft 6s 2 4 mph 1011.1mb 43f 43f
8:00pm 4ft 6s 4 7 mph 1011.4mb 43f 43f
7:00pm 3.5ft 5s 4 9 mph 1011.7mb 43f 43f
6:00pm 3.5ft 6s 4 9 mph 1012mb 43f 42f
5:00pm 4ft 5s 2 7 mph 1012.5mb 43f 42f
4:00pm 3.5ft 5s 16 18 mph 1012.2mb 43f 43f
3:00pm 4ft 5s 16 20 mph 1012.8mb 43f 43f
2:00pm 3.5ft 5s 18 20 mph 1013.1mb 43f 43f
1:00pm 3.5ft 5s 18 20 mph 1013.6mb 43f 43f
12:00pm 3ft 5s 16 20 mph 1014.1mb 43f 43f
11:00am 2.5ft 4s 16 18 mph 1015mb 43f 43f
10:00am 2.5ft 4s 11 16 mph 1015.8mb 43f 43f
9:00am 2.5ft 5s 9 11 mph 1016mb 43f 43f
8:00am 2.5ft 5s 11 13 mph 1016.3mb 43f 42f
7:00am 2.5ft 5s 11 13 mph 1016.4mb 43f 42f
6:00am 3ft 5s 9 11 mph 1016.5mb 43f 42f
5:00am 3ft 5s 9 13 mph 1016mb 43f 42f
4:00am 3.5ft 5s 11 13 mph 1015.9mb 43f 42f
3:00am 3.5ft 5s 9 13 mph 1015.8mb 43f 43f
2:00am 3.5ft 6s 16 18 mph 1015.6mb 43f 43f
1:00am 3.5ft 5s 16 18 mph 1016.4mb 43f 44f
12:00am 2.5ft 5s 9 11 mph 1017.1mb 43f 44f
Mon 04/24 11:00pm 2.5ft 5s 9 11 mph 1017.4mb 43f 45f
10:00pm 2.5ft 5s 11 13 mph 1017.8mb 43f 44f
9:00pm 3ft 5s 9 11 mph 1018.1mb 43f 44f
8:00pm 3.5ft 5s 7 9 mph 1017.9mb 42f 44f
7:00pm 3.5ft 5s 9 13 mph 1017.8mb 42f 44f
6:00pm 3.5ft 5s 13 16 mph 1017.7mb 42f 43f
5:00pm 4ft 5s 16 18 mph 1018.2mb 42f 43f
4:00pm 3.5ft 5s 18 22 mph 1018.4mb 42f 43f
3:00pm 4.5ft 6s 18 20 mph 1019.1mb 42f 42f
2:00pm 5ft 6s 18 20 mph 1019.7mb 41f 41f
1:00pm 4.5ft 6s 20 22 mph 1020.6mb 41f 41f
12:00pm 4.5ft 5s 20 22 mph 1021.5mb 41f 40f
11:00am 3.5ft 5s 20 22 mph 1021.8mb 41f 40f
10:00am 3.5ft 5s 20 22 mph 1021.9mb 41f 40f